Pronóstico
Mapa Interactivo
Aviación
Climatología
Hidrometeorología
Agrometeorología
Estaciones Automáticas
Transparencia
OMM WMO
Portada
Institución
Noticias
Imágenes
Tsunami
Historial
Boletines y Alertas
Contactos
Buscar Contenidos
Informe del Tiempo

SADR31 MDSD 112300Z
METAR

METAR MDPP 112300Z 08005KT 9999 SCT018 26/24 Q1017=
METAR MDST 112300Z 08007KT 9999 SCT018 26/20 Q1017=
METAR MDPC 112300Z 00000KT 9999 FEW022 SCT080 26/21 Q1018=
METAR MDBH 112300Z 13006KT 9999 FEW020CB SCT020 SCT080 BKN300 27/21
Q1017 CB/NW=
METAR MDJB 112300Z 00000KT 9999 FEW018 26/23 Q1016 NOSIG=
METAR MDSD 112300Z 00000KT 9999 SCT018 SCT070 25/23 Q1017=
METAR MDLR 112300Z 17004KT 9999 SCT018 SCT070 25/22 Q1018=
METAR MDCY 112300Z 04004KT 9999 BKN016 25/24 Q1017=